Terminal Aerodrome Forecast
Issued by NWS

Home | Current Version | Previous Version | Text Only | Print | Product List | Glossary On
Versions: 1 2 3 4 5 6 7 8 9 10 11 12 13 14 15 16 17 18 19 20 21 22 23 24 25 26 27 28 29 30 31 32 33 34 35 36
850
FTUS43 KMKX 280908 AAB
TAFUES
TAF AMD
KUES 280908Z 2809/2906 04004KT P6SM VCTS FEW005 SCT040CB BKN200
      TEMPO 2809/2811 BKN005 OVC040CB
     FM281100 05005KT 6SM BR FEW005 SCT020 OVC035
     FM281800 05013KT P6SM SCT025 OVC040 PROB30 2822/2902 -TSRA
      OVC035CB
     FM290200 02011KT P6SM VCSH BKN040=

USA.gov is the U.S. government's official web portal to all federal, state and local government web resources and services.